sensor_id;sensor_type;location;lat;lon;timestamp;P1;durP1;ratioP1;P2;durP2;ratioP2
21337;SDS011;72379;50.880;4.350;2023-08-30T00:00:11;14.27;;;8.50;;
21337;SDS011;72379;50.880;4.350;2023-08-30T00:02:38;15.60;;;8.10;;
21337;SDS011;72379;50.880;4.350;2023-08-30T00:05:04;12.70;;;7.70;;
21337;SDS011;72379;50.880;4.350;2023-08-30T00:07:30;14.50;;;8.63;;
21337;SDS011;72379;50.880;4.350;2023-08-30T00:09:58;11.87;;;7.77;;
21337;SDS011;72379;50.880;4.350;2023-08-30T00:12:24;14.73;;;7.63;;
21337;SDS011;72379;50.880;4.350;2023-08-30T00:14:50;16.07;;;7.93;;
21337;SDS011;72379;50.880;4.350;2023-08-30T00:17:16;11.17;;;7.60;;
21337;SDS011;72379;50.880;4.350;2023-08-30T00:19:42;14.63;;;7.50;;
21337;SDS011;72379;50.880;4.350;2023-08-30T00:22:08;10.80;;;6.63;;
21337;SDS011;72379;50.880;4.350;2023-08-30T00:24:34;13.17;;;7.00;;
21337;SDS011;72379;50.880;4.350;2023-08-30T00:27:01;12.13;;;7.57;;
21337;SDS011;72379;50.880;4.350;2023-08-30T00:29:27;10.53;;;6.77;;
21337;SDS011;72379;50.880;4.350;2023-08-30T00:31:53;11.23;;;6.37;;
21337;SDS011;72379;50.880;4.350;2023-08-30T00:34:19;11.03;;;7.60;;
21337;SDS011;72379;50.880;4.350;2023-08-30T00:36:45;14.63;;;7.63;;
21337;SDS011;72379;50.880;4.350;2023-08-30T00:39:11;9.90;;;6.93;;
21337;SDS011;72379;50.880;4.350;2023-08-30T00:41:38;10.67;;;7.03;;
21337;SDS011;72379;50.880;4.350;2023-08-30T00:44:04;10.90;;;6.53;;
21337;SDS011;72379;50.880;4.350;2023-08-30T00:46:30;10.03;;;6.70;;
21337;SDS011;72379;50.880;4.350;2023-08-30T00:48:58;12.40;;;7.57;;
21337;SDS011;72379;50.880;4.350;2023-08-30T00:51:24;9.57;;;6.43;;
21337;SDS011;72379;50.880;4.350;2023-08-30T00:53:50;11.93;;;6.87;;
21337;SDS011;72379;50.880;4.350;2023-08-30T00:56:16;9.37;;;6.57;;
21337;SDS011;72379;50.880;4.350;2023-08-30T00:58:43;10.17;;;7.03;;
21337;SDS011;72379;50.880;4.350;2023-08-30T01:01:09;12.40;;;7.07;;
21337;SDS011;72379;50.880;4.350;2023-08-30T01:03:37;10.80;;;6.87;;
21337;SDS011;72379;50.880;4.350;2023-08-30T01:06:03;12.23;;;7.27;;
21337;SDS011;72379;50.880;4.350;2023-08-30T01:08:29;12.03;;;6.93;;
21337;SDS011;72379;50.880;4.350;2023-08-30T01:13:21;10.97;;;6.80;;
21337;SDS011;72379;50.880;4.350;2023-08-30T01:15:47;15.23;;;7.10;;
21337;SDS011;72379;50.880;4.350;2023-08-30T01:18:14;14.43;;;7.20;;
21337;SDS011;72379;50.880;4.350;2023-08-30T01:20:43;11.40;;;6.93;;
21337;SDS011;72379;50.880;4.350;2023-08-30T01:23:58;12.50;;;7.30;;
21337;SDS011;72379;50.880;4.350;2023-08-30T01:26:26;11.07;;;6.90;;
21337;SDS011;72379;50.880;4.350;2023-08-30T01:28:59;11.13;;;7.33;;
21337;SDS011;72379;50.880;4.350;2023-08-30T01:31:26;12.23;;;6.90;;
21337;SDS011;72379;50.880;4.350;2023-08-30T01:33:54;15.87;;;7.40;;
21337;SDS011;72379;50.880;4.350;2023-08-30T01:36:22;16.20;;;7.20;;
21337;SDS011;72379;50.880;4.350;2023-08-30T01:38:48;12.67;;;7.23;;
21337;SDS011;72379;50.880;4.350;2023-08-30T01:41:14;10.20;;;6.80;;
21337;SDS011;72379;50.880;4.350;2023-08-30T01:43:41;10.33;;;6.70;;
21337;SDS011;72379;50.880;4.350;2023-08-30T01:46:08;11.07;;;7.37;;
21337;SDS011;72379;50.880;4.350;2023-08-30T01:48:35;13.23;;;7.20;;
21337;SDS011;72379;50.880;4.350;2023-08-30T01:51:02;14.40;;;7.53;;
21337;SDS011;72379;50.880;4.350;2023-08-30T01:53:29;15.40;;;7.77;;
21337;SDS011;72379;50.880;4.350;2023-08-30T01:55:56;11.37;;;7.90;;
21337;SDS011;72379;50.880;4.350;2023-08-30T01:58:22;11.63;;;7.07;;
21337;SDS011;72379;50.880;4.350;2023-08-30T02:00:47;11.87;;;7.83;;
21337;SDS011;72379;50.880;4.350;2023-08-30T02:03:14;13.90;;;8.20;;
21337;SDS011;72379;50.880;4.350;2023-08-30T02:06:26;12.77;;;7.47;;
21337;SDS011;72379;50.880;4.350;2023-08-30T02:08:29;12.17;;;7.20;;
21337;SDS011;72379;50.880;4.350;2023-08-30T02:11:07;13.73;;;7.67;;
21337;SDS011;72379;50.880;4.350;2023-08-30T02:13:38;13.27;;;7.00;;
21337;SDS011;72379;50.880;4.350;2023-08-30T02:16:05;15.00;;;8.07;;
21337;SDS011;72379;50.880;4.350;2023-08-30T02:18:34;14.03;;;7.87;;
21337;SDS011;72379;50.880;4.350;2023-08-30T02:21:01;12.93;;;7.33;;
21337;SDS011;72379;50.880;4.350;2023-08-30T02:23:28;12.30;;;7.43;;
21337;SDS011;72379;50.880;4.350;2023-08-30T02:25:54;16.37;;;6.93;;
21337;SDS011;72379;50.880;4.350;2023-08-30T02:28:23;13.57;;;7.87;;
21337;SDS011;72379;50.880;4.350;2023-08-30T02:30:50;15.63;;;7.33;;
21337;SDS011;72379;50.880;4.350;2023-08-30T02:33:17;12.80;;;7.83;;
21337;SDS011;72379;50.880;4.350;2023-08-30T02:35:43;12.60;;;7.30;;
21337;SDS011;72379;50.880;4.350;2023-08-30T02:38:10;10.90;;;7.03;;
21337;SDS011;72379;50.880;4.350;2023-08-30T02:40:36;14.70;;;7.33;;
21337;SDS011;72379;50.880;4.350;2023-08-30T02:43:02;13.67;;;6.87;;
21337;SDS011;72379;50.880;4.350;2023-08-30T02:45:28;15.00;;;8.83;;
21337;SDS011;72379;50.880;4.350;2023-08-30T02:47:57;12.23;;;6.63;;
21337;SDS011;72379;50.880;4.350;2023-08-30T02:50:23;12.10;;;6.43;;
21337;SDS011;72379;50.880;4.350;2023-08-30T02:52:50;10.00;;;6.70;;
21337;SDS011;72379;50.880;4.350;2023-08-30T02:55:15;10.27;;;6.50;;
21337;SDS011;72379;50.880;4.350;2023-08-30T02:57:42;10.13;;;6.13;;
21337;SDS011;72379;50.880;4.350;2023-08-30T03:00:08;11.93;;;6.40;;
21337;SDS011;72379;50.880;4.350;2023-08-30T03:02:34;9.10;;;5.87;;
21337;SDS011;72379;50.880;4.350;2023-08-30T03:05:00;8.77;;;5.97;;
21337;SDS011;72379;50.880;4.350;2023-08-30T03:07:28;9.90;;;6.10;;
21337;SDS011;72379;50.880;4.350;2023-08-30T03:09:54;12.50;;;5.97;;
21337;SDS011;72379;50.880;4.350;2023-08-30T03:12:20;9.00;;;5.43;;
21337;SDS011;72379;50.880;4.350;2023-08-30T03:14:46;13.20;;;5.87;;
21337;SDS011;72379;50.880;4.350;2023-08-30T03:17:12;12.27;;;6.03;;
21337;SDS011;72379;50.880;4.350;2023-08-30T03:19:38;11.63;;;6.43;;
21337;SDS011;72379;50.880;4.350;2023-08-30T03:22:04;15.23;;;7.40;;
21337;SDS011;72379;50.880;4.350;2023-08-30T03:24:30;13.03;;;6.87;;
21337;SDS011;72379;50.880;4.350;2023-08-30T03:26:56;15.23;;;7.07;;
21337;SDS011;72379;50.880;4.350;2023-08-30T03:29:22;12.03;;;6.90;;
21337;SDS011;72379;50.880;4.350;2023-08-30T03:31:48;17.20;;;8.50;;
21337;SDS011;72379;50.880;4.350;2023-08-30T03:34:14;19.30;;;8.97;;
21337;SDS011;72379;50.880;4.350;2023-08-30T03:36:40;19.13;;;9.23;;
21337;SDS011;72379;50.880;4.350;2023-08-30T03:39:09;17.50;;;7.77;;
21337;SDS011;72379;50.880;4.350;2023-08-30T03:41:34;15.87;;;7.27;;
21337;SDS011;72379;50.880;4.350;2023-08-30T03:44:00;16.93;;;7.80;;
21337;SDS011;72379;50.880;4.350;2023-08-30T03:46:26;13.87;;;7.80;;
21337;SDS011;72379;50.880;4.350;2023-08-30T03:48:52;14.03;;;6.93;;
21337;SDS011;72379;50.880;4.350;2023-08-30T03:51:18;15.27;;;6.97;;
21337;SDS011;72379;50.880;4.350;2023-08-30T03:53:44;14.50;;;7.17;;
21337;SDS011;72379;50.880;4.350;2023-08-30T03:56:10;14.90;;;6.90;;
21337;SDS011;72379;50.880;4.350;2023-08-30T03:58:36;19.17;;;6.80;;
21337;SDS011;72379;50.880;4.350;2023-08-30T04:01:02;17.43;;;7.20;;
21337;SDS011;72379;50.880;4.350;2023-08-30T04:03:29;13.00;;;6.23;;
21337;SDS011;72379;50.880;4.350;2023-08-30T04:05:55;16.57;;;6.80;;
21337;SDS011;72379;50.880;4.350;2023-08-30T04:08:24;13.87;;;5.97;;
21337;SDS011;72379;50.880;4.350;2023-08-30T04:10:51;15.90;;;6.23;;
21337;SDS011;72379;50.880;4.350;2023-08-30T04:13:18;16.30;;;7.13;;
21337;SDS011;72379;50.880;4.350;2023-08-30T04:15:44;18.57;;;6.93;;
21337;SDS011;72379;50.880;4.350;2023-08-30T04:18:10;14.43;;;7.40;;
21337;SDS011;72379;50.880;4.350;2023-08-30T04:20:36;15.63;;;6.83;;
21337;SDS011;72379;50.880;4.350;2023-08-30T04:23:02;14.17;;;6.73;;
21337;SDS011;72379;50.880;4.350;2023-08-30T04:25:29;17.33;;;6.60;;
21337;SDS011;72379;50.880;4.350;2023-08-30T04:27:55;15.03;;;6.70;;
21337;SDS011;72379;50.880;4.350;2023-08-30T04:30:21;11.40;;;6.13;;
21337;SDS011;72379;50.880;4.350;2023-08-30T04:32:47;10.43;;;5.80;;
21337;SDS011;72379;50.880;4.350;2023-08-30T04:35:13;12.73;;;6.60;;
21337;SDS011;72379;50.880;4.350;2023-08-30T04:37:39;15.43;;;6.87;;
21337;SDS011;72379;50.880;4.350;2023-08-30T04:40:08;12.83;;;6.27;;
21337;SDS011;72379;50.880;4.350;2023-08-30T04:42:34;14.47;;;6.07;;
21337;SDS011;72379;50.880;4.350;2023-08-30T04:45:01;12.23;;;6.73;;
21337;SDS011;72379;50.880;4.350;2023-08-30T04:47:34;10.70;;;6.00;;
21337;SDS011;72379;50.880;4.350;2023-08-30T04:50:00;16.77;;;6.50;;
21337;SDS011;72379;50.880;4.350;2023-08-30T04:52:27;11.33;;;6.40;;
21337;SDS011;72379;50.880;4.350;2023-08-30T04:54:53;18.37;;;6.43;;
21337;SDS011;72379;50.880;4.350;2023-08-30T04:57:19;14.83;;;6.90;;
21337;SDS011;72379;50.880;4.350;2023-08-30T04:59:45;14.23;;;6.33;;
21337;SDS011;72379;50.880;4.350;2023-08-30T05:02:11;16.93;;;6.37;;
21337;SDS011;72379;50.880;4.350;2023-08-30T05:04:37;15.07;;;6.90;;
21337;SDS011;72379;50.880;4.350;2023-08-30T05:07:03;15.57;;;6.77;;
21337;SDS011;72379;50.880;4.350;2023-08-30T05:09:30;13.07;;;6.53;;
21337;SDS011;72379;50.880;4.350;2023-08-30T05:11:57;15.27;;;7.40;;
21337;SDS011;72379;50.880;4.350;2023-08-30T05:14:23;21.13;;;7.30;;
21337;SDS011;72379;50.880;4.350;2023-08-30T05:16:49;16.87;;;7.97;;
21337;SDS011;72379;50.880;4.350;2023-08-30T05:19:15;14.47;;;7.17;;
21337;SDS011;72379;50.880;4.350;2023-08-30T05:21:44;16.77;;;7.37;;
21337;SDS011;72379;50.880;4.350;2023-08-30T05:24:10;14.53;;;6.93;;
21337;SDS011;72379;50.880;4.350;2023-08-30T05:26:36;16.13;;;8.13;;
21337;SDS011;72379;50.880;4.350;2023-08-30T05:29:03;19.80;;;8.67;;
21337;SDS011;72379;50.880;4.350;2023-08-30T05:31:28;23.97;;;9.80;;
21337;SDS011;72379;50.880;4.350;2023-08-30T05:33:55;24.43;;;10.13;;
21337;SDS011;72379;50.880;4.350;2023-08-30T05:36:20;23.67;;;10.20;;
21337;SDS011;72379;50.880;4.350;2023-08-30T05:38:46;22.90;;;10.10;;
21337;SDS011;72379;50.880;4.350;2023-08-30T05:41:13;21.27;;;9.63;;
21337;SDS011;72379;50.880;4.350;2023-08-30T05:43:39;16.77;;;9.47;;
21337;SDS011;72379;50.880;4.350;2023-08-30T05:46:05;16.47;;;8.43;;
21337;SDS011;72379;50.880;4.350;2023-08-30T05:48:37;15.00;;;8.57;;
21337;SDS011;72379;50.880;4.350;2023-08-30T05:51:03;9.73;;;6.63;;
21337;SDS011;72379;50.880;4.350;2023-08-30T05:53:29;12.93;;;7.47;;
21337;SDS011;72379;50.880;4.350;2023-08-30T05:55:55;12.40;;;7.73;;
21337;SDS011;72379;50.880;4.350;2023-08-30T05:58:21;11.97;;;7.43;;
21337;SDS011;72379;50.880;4.350;2023-08-30T06:00:47;11.10;;;7.40;;
21337;SDS011;72379;50.880;4.350;2023-08-30T06:03:13;12.93;;;7.90;;
21337;SDS011;72379;50.880;4.350;2023-08-30T06:05:39;15.73;;;8.23;;
21337;SDS011;72379;50.880;4.350;2023-08-30T06:08:05;14.80;;;7.93;;
21337;SDS011;72379;50.880;4.350;2023-08-30T06:10:32;10.63;;;6.77;;
21337;SDS011;72379;50.880;4.350;2023-08-30T06:12:59;9.00;;;6.33;;
21337;SDS011;72379;50.880;4.350;2023-08-30T06:15:29;13.33;;;6.80;;
21337;SDS011;72379;50.880;4.350;2023-08-30T06:17:56;10.40;;;6.33;;
21337;SDS011;72379;50.880;4.350;2023-08-30T06:20:23;10.50;;;6.37;;
21337;SDS011;72379;50.880;4.350;2023-08-30T06:22:49;14.60;;;6.50;;
21337;SDS011;72379;50.880;4.350;2023-08-30T06:25:15;13.00;;;6.63;;
21337;SDS011;72379;50.880;4.350;2023-08-30T06:27:42;9.90;;;6.17;;
21337;SDS011;72379;50.880;4.350;2023-08-30T06:30:19;10.43;;;6.63;;
21337;SDS011;72379;50.880;4.350;2023-08-30T06:32:45;12.60;;;7.53;;
21337;SDS011;72379;50.880;4.350;2023-08-30T06:35:11;11.63;;;7.80;;
21337;SDS011;72379;50.880;4.350;2023-08-30T06:37:37;14.63;;;8.07;;
21337;SDS011;72379;50.880;4.350;2023-08-30T06:40:03;14.33;;;7.63;;
21337;SDS011;72379;50.880;4.350;2023-08-30T06:42:29;14.73;;;8.70;;
21337;SDS011;72379;50.880;4.350;2023-08-30T06:44:55;14.87;;;7.47;;
21337;SDS011;72379;50.880;4.350;2023-08-30T06:47:21;15.67;;;7.77;;
21337;SDS011;72379;50.880;4.350;2023-08-30T06:49:47;17.20;;;8.00;;
21337;SDS011;72379;50.880;4.350;2023-08-30T06:52:13;16.63;;;8.13;;
21337;SDS011;72379;50.880;4.350;2023-08-30T06:54:40;13.87;;;8.37;;
21337;SDS011;72379;50.880;4.350;2023-08-30T06:57:06;12.60;;;8.00;;
21337;SDS011;72379;50.880;4.350;2023-08-30T06:59:33;16.03;;;8.13;;
21337;SDS011;72379;50.880;4.350;2023-08-30T07:01:59;16.27;;;8.77;;
21337;SDS011;72379;50.880;4.350;2023-08-30T07:04:25;14.67;;;7.70;;
21337;SDS011;72379;50.880;4.350;2023-08-30T07:06:52;19.30;;;8.97;;
21337;SDS011;72379;50.880;4.350;2023-08-30T07:09:17;16.77;;;8.03;;
21337;SDS011;72379;50.880;4.350;2023-08-30T07:11:43;13.90;;;8.13;;
21337;SDS011;72379;50.880;4.350;2023-08-30T07:14:12;10.53;;;6.97;;
21337;SDS011;72379;50.880;4.350;2023-08-30T07:16:39;12.47;;;7.30;;
21337;SDS011;72379;50.880;4.350;2023-08-30T07:19:05;17.50;;;8.03;;
21337;SDS011;72379;50.880;4.350;2023-08-30T07:21:32;11.70;;;7.63;;
21337;SDS011;72379;50.880;4.350;2023-08-30T07:24:01;13.63;;;7.70;;
21337;SDS011;72379;50.880;4.350;2023-08-30T07:26:27;17.07;;;8.63;;
21337;SDS011;72379;50.880;4.350;2023-08-30T07:28:52;14.67;;;7.83;;
21337;SDS011;72379;50.880;4.350;2023-08-30T07:31:18;16.07;;;8.50;;
21337;SDS011;72379;50.880;4.350;2023-08-30T07:33:44;14.03;;;8.87;;
21337;SDS011;72379;50.880;4.350;2023-08-30T07:36:10;16.80;;;8.80;;
21337;SDS011;72379;50.880;4.350;2023-08-30T07:38:37;12.60;;;8.17;;
21337;SDS011;72379;50.880;4.350;2023-08-30T07:41:03;14.60;;;8.33;;
21337;SDS011;72379;50.880;4.350;2023-08-30T07:43:29;13.53;;;8.23;;
21337;SDS011;72379;50.880;4.350;2023-08-30T07:45:55;12.53;;;8.23;;
21337;SDS011;72379;50.880;4.350;2023-08-30T07:48:21;10.93;;;6.60;;
21337;SDS011;72379;50.880;4.350;2023-08-30T07:50:47;12.23;;;7.40;;
21337;SDS011;72379;50.880;4.350;2023-08-30T07:53:13;15.17;;;7.47;;
21337;SDS011;72379;50.880;4.350;2023-08-30T07:55:39;13.33;;;7.10;;
21337;SDS011;72379;50.880;4.350;2023-08-30T07:58:05;14.87;;;7.77;;
21337;SDS011;72379;50.880;4.350;2023-08-30T08:00:33;14.27;;;8.13;;
21337;SDS011;72379;50.880;4.350;2023-08-30T08:02:59;13.77;;;7.47;;
21337;SDS011;72379;50.880;4.350;2023-08-30T08:05:25;15.93;;;7.63;;
21337;SDS011;72379;50.880;4.350;2023-08-30T08:07:52;16.13;;;7.73;;
21337;SDS011;72379;50.880;4.350;2023-08-30T08:10:18;14.30;;;6.77;;
21337;SDS011;72379;50.880;4.350;2023-08-30T08:12:44;16.00;;;7.73;;
21337;SDS011;72379;50.880;4.350;2023-08-30T08:15:10;12.57;;;6.43;;
21337;SDS011;72379;50.880;4.350;2023-08-30T08:17:36;12.53;;;6.57;;
21337;SDS011;72379;50.880;4.350;2023-08-30T08:20:04;14.07;;;7.03;;
21337;SDS011;72379;50.880;4.350;2023-08-30T08:22:30;14.63;;;6.63;;
21337;SDS011;72379;50.880;4.350;2023-08-30T08:24:56;9.67;;;5.90;;
21337;SDS011;72379;50.880;4.350;2023-08-30T08:27:24;8.27;;;5.40;;
21337;SDS011;72379;50.880;4.350;2023-08-30T08:29:50;9.93;;;5.87;;
21337;SDS011;72379;50.880;4.350;2023-08-30T08:32:16;10.50;;;5.83;;
21337;SDS011;72379;50.880;4.350;2023-08-30T08:34:42;10.50;;;5.50;;
21337;SDS011;72379;50.880;4.350;2023-08-30T08:37:08;7.87;;;5.40;;
21337;SDS011;72379;50.880;4.350;2023-08-30T08:39:34;9.87;;;5.13;;
21337;SDS011;72379;50.880;4.350;2023-08-30T08:42:01;9.10;;;5.07;;
21337;SDS011;72379;50.880;4.350;2023-08-30T08:44:28;8.63;;;5.80;;
21337;SDS011;72379;50.880;4.350;2023-08-30T08:46:56;8.37;;;5.60;;
21337;SDS011;72379;50.880;4.350;2023-08-30T08:49:23;9.03;;;5.57;;
21337;SDS011;72379;50.880;4.350;2023-08-30T08:51:53;7.70;;;5.83;;
21337;SDS011;72379;50.880;4.350;2023-08-30T08:54:19;7.33;;;5.30;;
21337;SDS011;72379;50.880;4.350;2023-08-30T08:56:45;9.07;;;5.93;;
21337;SDS011;72379;50.880;4.350;2023-08-30T08:59:11;8.67;;;5.20;;
21337;SDS011;72379;50.880;4.350;2023-08-30T09:01:41;7.97;;;5.53;;
21337;SDS011;72379;50.880;4.350;2023-08-30T09:04:10;12.87;;;5.97;;
21337;SDS011;72379;50.880;4.350;2023-08-30T09:06:36;8.70;;;5.27;;
21337;SDS011;72379;50.880;4.350;2023-08-30T09:09:04;9.80;;;5.63;;
21337;SDS011;72379;50.880;4.350;2023-08-30T09:11:31;10.20;;;5.63;;
21337;SDS011;72379;50.880;4.350;2023-08-30T09:13:57;9.03;;;5.40;;
21337;SDS011;72379;50.880;4.350;2023-08-30T09:16:23;8.97;;;5.07;;
21337;SDS011;72379;50.880;4.350;2023-08-30T09:18:59;9.83;;;5.83;;
21337;SDS011;72379;50.880;4.350;2023-08-30T09:21:26;9.13;;;5.47;;
21337;SDS011;72379;50.880;4.350;2023-08-30T09:24:01;10.47;;;6.23;;
21337;SDS011;72379;50.880;4.350;2023-08-30T09:26:29;9.97;;;7.33;;
21337;SDS011;72379;50.880;4.350;2023-08-30T09:29:06;10.47;;;6.90;;
21337;SDS011;72379;50.880;4.350;2023-08-30T09:31:36;11.73;;;8.37;;
21337;SDS011;72379;50.880;4.350;2023-08-30T09:34:04;13.17;;;7.50;;
21337;SDS011;72379;50.880;4.350;2023-08-30T09:36:37;12.83;;;7.10;;
21337;SDS011;72379;50.880;4.350;2023-08-30T09:39:07;12.43;;;7.57;;
21337;SDS011;72379;50.880;4.350;2023-08-30T09:41:57;10.43;;;7.33;;
21337;SDS011;72379;50.880;4.350;2023-08-30T09:44:21;10.00;;;7.60;;
21337;SDS011;72379;50.880;4.350;2023-08-30T09:46:50;10.97;;;7.50;;
21337;SDS011;72379;50.880;4.350;2023-08-30T09:49:19;12.83;;;7.77;;
21337;SDS011;72379;50.880;4.350;2023-08-30T09:51:49;11.10;;;7.20;;
21337;SDS011;72379;50.880;4.350;2023-08-30T09:56:46;13.63;;;8.13;;
21337;SDS011;72379;50.880;4.350;2023-08-30T09:59:13;13.80;;;8.17;;
21337;SDS011;72379;50.880;4.350;2023-08-30T10:01:41;15.23;;;8.40;;
21337;SDS011;72379;50.880;4.350;2023-08-30T10:04:08;14.40;;;9.07;;
21337;SDS011;72379;50.880;4.350;2023-08-30T10:06:38;11.77;;;7.63;;
21337;SDS011;72379;50.880;4.350;2023-08-30T10:09:05;13.20;;;8.90;;
21337;SDS011;72379;50.880;4.350;2023-08-30T10:11:33;15.07;;;8.83;;
21337;SDS011;72379;50.880;4.350;2023-08-30T10:14:00;14.67;;;9.50;;
21337;SDS011;72379;50.880;4.350;2023-08-30T10:19:11;16.27;;;10.83;;
21337;SDS011;72379;50.880;4.350;2023-08-30T10:21:40;14.77;;;9.50;;
21337;SDS011;72379;50.880;4.350;2023-08-30T10:24:14;16.43;;;10.53;;
21337;SDS011;72379;50.880;4.350;2023-08-30T10:26:44;16.87;;;10.60;;
21337;SDS011;72379;50.880;4.350;2023-08-30T10:29:10;12.73;;;9.17;;
21337;SDS011;72379;50.880;4.350;2023-08-30T10:31:38;12.52;;;8.82;;
21337;SDS011;72379;50.880;4.350;2023-08-30T10:34:12;12.97;;;9.50;;
21337;SDS011;72379;50.880;4.350;2023-08-30T10:36:40;12.40;;;9.03;;
21337;SDS011;72379;50.880;4.350;2023-08-30T10:39:10;14.10;;;9.18;;
21337;SDS011;72379;50.880;4.350;2023-08-30T10:41:37;16.73;;;7.85;;
21337;SDS011;72379;50.880;4.350;2023-08-30T10:44:03;15.27;;;9.57;;
21337;SDS011;72379;50.880;4.350;2023-08-30T10:46:35;16.80;;;9.95;;
21337;SDS011;72379;50.880;4.350;2023-08-30T10:49:13;12.80;;;9.27;;
21337;SDS011;72379;50.880;4.350;2023-08-30T10:51:39;12.40;;;8.57;;
21337;SDS011;72379;50.880;4.350;2023-08-30T10:54:12;13.57;;;9.10;;
21337;SDS011;72379;50.880;4.350;2023-08-30T10:57:14;11.63;;;8.32;;
21337;SDS011;72379;50.880;4.350;2023-08-30T10:59:39;12.60;;;7.95;;
21337;SDS011;72379;50.880;4.350;2023-08-30T11:02:05;14.95;;;9.05;;
21337;SDS011;72379;50.880;4.350;2023-08-30T11:04:31;14.25;;;8.75;;
21337;SDS011;72379;50.880;4.350;2023-08-30T11:06:57;11.85;;;8.10;;
21337;SDS011;72379;50.880;4.350;2023-08-30T11:09:23;12.10;;;8.45;;
21337;SDS011;72379;50.880;4.350;2023-08-30T11:11:50;12.90;;;7.63;;
21337;SDS011;72379;50.880;4.350;2023-08-30T11:14:16;15.43;;;8.20;;
21337;SDS011;72379;50.880;4.350;2023-08-30T11:16:43;12.65;;;7.70;;
21337;SDS011;72379;50.880;4.350;2023-08-30T11:19:10;10.45;;;6.63;;
21337;SDS011;72379;50.880;4.350;2023-08-30T11:21:37;9.02;;;6.32;;
21337;SDS011;72379;50.880;4.350;2023-08-30T11:24:04;11.60;;;6.05;;
21337;SDS011;72379;50.880;4.350;2023-08-30T11:26:31;12.95;;;6.13;;
21337;SDS011;72379;50.880;4.350;2023-08-30T11:28:57;11.63;;;5.80;;
21337;SDS011;72379;50.880;4.350;2023-08-30T11:31:23;7.20;;;4.55;;
21337;SDS011;72379;50.880;4.350;2023-08-30T11:33:53;8.02;;;4.53;;
21337;SDS011;72379;50.880;4.350;2023-08-30T11:36:20;12.15;;;4.53;;
21337;SDS011;72379;50.880;4.350;2023-08-30T11:38:48;8.75;;;3.65;;
21337;SDS011;72379;50.880;4.350;2023-08-30T11:41:17;12.25;;;3.35;;
21337;SDS011;72379;50.880;4.350;2023-08-30T11:43:44;7.75;;;2.92;;
21337;SDS011;72379;50.880;4.350;2023-08-30T11:46:10;8.25;;;3.17;;
21337;SDS011;72379;50.880;4.350;2023-08-30T11:48:37;13.88;;;6.65;;
21337;SDS011;72379;50.880;4.350;2023-08-30T11:51:04;12.40;;;3.22;;
21337;SDS011;72379;50.880;4.350;2023-08-30T11:53:31;12.13;;;2.78;;
21337;SDS011;72379;50.880;4.350;2023-08-30T11:55:57;8.98;;;2.60;;
21337;SDS011;72379;50.880;4.350;2023-08-30T11:58:22;7.60;;;2.70;;
21337;SDS011;72379;50.880;4.350;2023-08-30T12:00:49;8.68;;;2.90;;
21337;SDS011;72379;50.880;4.350;2023-08-30T12:03:15;10.63;;;3.00;;
21337;SDS011;72379;50.880;4.350;2023-08-30T12:05:45;9.88;;;3.17;;
21337;SDS011;72379;50.880;4.350;2023-08-30T12:08:18;12.60;;;3.20;;
21337;SDS011;72379;50.880;4.350;2023-08-30T12:10:44;11.07;;;2.70;;
21337;SDS011;72379;50.880;4.350;2023-08-30T12:13:23;7.32;;;2.33;;
21337;SDS011;72379;50.880;4.350;2023-08-30T12:15:50;11.93;;;3.00;;
21337;SDS011;72379;50.880;4.350;2023-08-30T12:18:20;9.82;;;2.92;;
21337;SDS011;72379;50.880;4.350;2023-08-30T12:20:51;6.35;;;2.78;;
21337;SDS011;72379;50.880;4.350;2023-08-30T12:23:25;8.32;;;2.28;;
21337;SDS011;72379;50.880;4.350;2023-08-30T12:26:02;10.00;;;2.95;;
21337;SDS011;72379;50.880;4.350;2023-08-30T12:28:30;7.18;;;2.55;;
21337;SDS011;72379;50.880;4.350;2023-08-30T12:30:57;7.18;;;2.45;;
21337;SDS011;72379;50.880;4.350;2023-08-30T12:33:23;10.07;;;2.60;;
21337;SDS011;72379;50.880;4.350;2023-08-30T12:35:55;10.05;;;2.47;;
21337;SDS011;72379;50.880;4.350;2023-08-30T12:38:22;7.10;;;2.50;;
21337;SDS011;72379;50.880;4.350;2023-08-30T12:40:52;13.07;;;3.20;;
21337;SDS011;72379;50.880;4.350;2023-08-30T12:43:18;6.20;;;2.33;;
21337;SDS011;72379;50.880;4.350;2023-08-30T12:45:49;8.35;;;2.78;;
21337;SDS011;72379;50.880;4.350;2023-08-30T12:48:16;8.10;;;2.40;;
21337;SDS011;72379;50.880;4.350;2023-08-30T12:50:43;8.95;;;2.55;;
21337;SDS011;72379;50.880;4.350;2023-08-30T12:53:10;8.43;;;2.47;;
21337;SDS011;72379;50.880;4.350;2023-08-30T12:55:36;8.93;;;2.75;;
21337;SDS011;72379;50.880;4.350;2023-08-30T12:58:06;8.00;;;3.03;;
21337;SDS011;72379;50.880;4.350;2023-08-30T13:00:32;7.78;;;2.53;;
21337;SDS011;72379;50.880;4.350;2023-08-30T13:02:58;11.57;;;2.70;;
21337;SDS011;72379;50.880;4.350;2023-08-30T13:05:24;8.25;;;2.33;;
21337;SDS011;72379;50.880;4.350;2023-08-30T13:07:50;7.80;;;2.20;;
21337;SDS011;72379;50.880;4.350;2023-08-30T13:10:15;7.47;;;2.28;;
21337;SDS011;72379;50.880;4.350;2023-08-30T13:12:42;6.07;;;2.08;;
21337;SDS011;72379;50.880;4.350;2023-08-30T13:15:07;7.93;;;2.38;;
21337;SDS011;72379;50.880;4.350;2023-08-30T13:17:33;6.90;;;2.10;;
21337;SDS011;72379;50.880;4.350;2023-08-30T13:19:59;5.97;;;1.90;;
21337;SDS011;72379;50.880;4.350;2023-08-30T13:22:26;6.20;;;2.20;;
21337;SDS011;72379;50.880;4.350;2023-08-30T13:24:52;6.60;;;1.73;;
21337;SDS011;72379;50.880;4.350;2023-08-30T13:27:19;3.72;;;1.70;;
21337;SDS011;72379;50.880;4.350;2023-08-30T13:29:45;6.68;;;1.70;;
21337;SDS011;72379;50.880;4.350;2023-08-30T13:32:10;5.57;;;1.60;;
21337;SDS011;72379;50.880;4.350;2023-08-30T13:34:36;5.40;;;2.20;;
21337;SDS011;72379;50.880;4.350;2023-08-30T13:37:03;4.82;;;1.80;;
21337;SDS011;72379;50.880;4.350;2023-08-30T13:39:29;4.88;;;1.65;;
21337;SDS011;72379;50.880;4.350;2023-08-30T13:41:55;6.07;;;1.83;;
21337;SDS011;72379;50.880;4.350;2023-08-30T13:44:21;5.78;;;1.80;;
21337;SDS011;72379;50.880;4.350;2023-08-30T13:46:49;6.00;;;1.95;;
21337;SDS011;72379;50.880;4.350;2023-08-30T13:49:15;7.43;;;2.72;;
21337;SDS011;72379;50.880;4.350;2023-08-30T13:51:41;7.03;;;1.90;;
21337;SDS011;72379;50.880;4.350;2023-08-30T13:54:07;4.57;;;2.00;;
21337;SDS011;72379;50.880;4.350;2023-08-30T13:56:32;5.78;;;2.05;;
21337;SDS011;72379;50.880;4.350;2023-08-30T13:58:58;4.50;;;2.20;;
21337;SDS011;72379;50.880;4.350;2023-08-30T14:01:24;4.32;;;1.90;;
21337;SDS011;72379;50.880;4.350;2023-08-30T14:03:50;5.75;;;2.00;;
21337;SDS011;72379;50.880;4.350;2023-08-30T14:06:16;6.03;;;2.10;;
21337;SDS011;72379;50.880;4.350;2023-08-30T14:08:45;5.35;;;1.90;;
21337;SDS011;72379;50.880;4.350;2023-08-30T14:11:11;7.72;;;2.40;;
21337;SDS011;72379;50.880;4.350;2023-08-30T14:13:38;8.65;;;2.58;;
21337;SDS011;72379;50.880;4.350;2023-08-30T14:16:04;8.70;;;2.33;;
21337;SDS011;72379;50.880;4.350;2023-08-30T14:18:30;4.28;;;1.85;;
21337;SDS011;72379;50.880;4.350;2023-08-30T14:20:56;3.33;;;1.45;;
21337;SDS011;72379;50.880;4.350;2023-08-30T14:23:26;5.93;;;1.80;;
21337;SDS011;72379;50.880;4.350;2023-08-30T14:25:56;4.13;;;1.77;;
21337;SDS011;72379;50.880;4.350;2023-08-30T14:28:23;5.40;;;1.52;;
21337;SDS011;72379;50.880;4.350;2023-08-30T14:30:49;4.25;;;1.70;;
21337;SDS011;72379;50.880;4.350;2023-08-30T14:33:15;9.07;;;1.75;;
21337;SDS011;72379;50.880;4.350;2023-08-30T14:35:41;3.22;;;1.80;;
21337;SDS011;72379;50.880;4.350;2023-08-30T14:38:07;4.70;;;1.60;;
21337;SDS011;72379;50.880;4.350;2023-08-30T14:40:33;9.93;;;1.88;;
21337;SDS011;72379;50.880;4.350;2023-08-30T14:42:59;7.53;;;1.75;;
21337;SDS011;72379;50.880;4.350;2023-08-30T14:45:25;7.28;;;1.70;;